Datchet, United Kingdom
Current Conditions -  °F | °C
As of 12:20 AM on Saturday 22 Nov 2014 (Local Time) from EGLL Reporting Station
Haze Haze  
Wind Chill: 50°   Ceiling: 800
Heat Index: 50°   Visibility: 2.5mi
Dew Point: 48°   Wind: 6mph
Humidity: 94%   Direction: 90°E
Pressure: 29.88"   Gusts: NA
Location:  51.48°N, 0.58°W
Report Text: EGLL 220020Z 09005KT 4000 HZ OVC008 10/09 Q1012
Loading
Personal Weather Stations






























Interactive Weather Map New forecast layout! Learn more

10-Day Weather Forecast

Advertisements
Track Severe Weather on mobile